Chiyomaru No.28 — 28CHIYO — position and weather

sailwx.info

Track history (hours):
 
Tides and Currents Weather Stations Pressure Air Temp Water Temp Dewpoint Dewpoint Depression Visibility Wind Speed Wind Dir Waves Ship Positions

Chiyomaru No.28

Last reported at 2018-Jun-22 07:42 UTC. Time now 2018-Jun-22 20:23 UTC.
Position N 34°39' E 135°25'.

Length 18 m; draft 5 m.

Type: Tug. MMSI: 431000432.

Date/timePositionNaut miles runAvg speedWind from/ knotsBaromVisibWave heightAir tempDewpointWater temp
2018-Jun-22 07:42N 34°39' E 135°25'2 8.3
2018-Jun-22 07:26N 34°40' E 135°23'1 0.9
2018-Jun-22 05:59N 34°41' E 135°22'0 0.0
2018-Jun-22 05:26N 34°41' E 135°22'0 0.0
2018-Jun-22 04:59N 34°41' E 135°22'0 0.1
2018-Jun-22 01:37N 34°41' E 135°22'0 1.4
2018-Jun-22 01:19N 34°41' E 135°21'2 4.6
2018-Jun-22 00:59N 34°40' E 135°20'2 4.8
2018-Jun-22 00:30N 34°39' E 135°17'0 0.0
2018-Jun-21 23:45N 34°39' E 135°17'0 0.0
2018-Jun-21 23:24N 34°39' E 135°17'0 0.7
2018-Jun-21 23:00N 34°39' E 135°17'3 6.5
2018-Jun-21 22:30N 34°40' E 135°21'1 1.5
2018-Jun-21 21:59N 34°41' E 135°21'4 8.7
2018-Jun-21 21:30N 34°39' E 135°26'1 0.1
2018-Jun-21 08:31N 34°39' E 135°27'0 9.0
2018-Jun-21 08:30N 34°39' E 135°27'4 8.4
2018-Jun-21 08:00N 34°40' E 135°22'1 1.3
2018-Jun-21 07:29N 34°41' E 135°22'1 0.1
2018-Jun-20 22:50N 34°41' E 135°23'1 4.1
2018-Jun-20 22:30N 34°41' E 135°21'0 0.1
2018-Jun-20 22:00N 34°41' E 135°21'4 0.3
2018-Jun-20 07:33N 34°39' E 135°26'1 8.1
2018-Jun-20 07:25N 34°39' E 135°24'2 0.3
2018-Jun-19 22:21N 34°41' E 135°22'3 7.5
2018-Jun-19 21:59N 34°39' E 135°25'2 0.1
2018-Jun-19 02:26N 34°39' E 135°28'4 7.9
2018-Jun-19 01:54N 34°40' E 135°23'2 4.8
2018-Jun-19 01:30N 34°41' E 135°21'1 2.1
2018-Jun-19 01:00N 34°40' E 135°20'3 5.1
2018-Jun-19 00:30N 34°39' E 135°17'0 0.0
2018-Jun-18 23:55N 34°39' E 135°17'0 0.0
2018-Jun-18 23:22N 34°39' E 135°17'1 2.7
2018-Jun-18 23:00N 34°39' E 135°18'3 6.2
2018-Jun-18 22:29N 34°40' E 135°22'1 1.2
2018-Jun-18 21:57N 34°41' E 135°21'4 8.4
2018-Jun-18 21:26N 34°39' E 135°26'1 0.0
2018-Jun-18 02:06N 34°39' E 135°27'1 8.3
2018-Jun-18 01:58N 34°39' E 135°25'4 8.1
2018-Jun-18 01:30N 34°41' E 135°21'0 0.7
2018-Jun-18 00:55N 34°41' E 135°21'0 0.0
2018-Jun-18 00:25N 34°41' E 135°21'0 0.0
2018-Jun-17 23:55N 34°41' E 135°21'0 0.0
2018-Jun-17 23:25N 34°41' E 135°21'0 0.0
2018-Jun-17 22:55N 34°41' E 135°21'0 0.0
2018-Jun-17 22:25N 34°41' E 135°21'0 0.0
2018-Jun-17 22:00N 34°41' E 135°21'  
2018-Jun-15 08:05N 34°39' E 135°27'1 8.6
2018-Jun-15 07:58N 34°39' E 135°26'4 7.3
2018-Jun-15 07:22N 34°41' E 135°21'1 0.2
2018-Jun-14 22:53N 34°41' E 135°23'2 3.5
2018-Jun-14 22:25N 34°41' E 135°21'1 1.3
2018-Jun-14 22:00N 34°41' E 135°21'6 0.6
2018-Jun-14 12:06N 34°39' E 135°28'0 0.0
2018-Jun-14 11:54N 34°39' E 135°28'0 0.0
2018-Jun-14 11:24N 34°39' E 135°28'0 0.0
2018-Jun-14 11:00N 34°39' E 135°28'1 0.3
2018-Jun-14 07:49N 34°39' E 135°27'3 8.3
2018-Jun-14 07:27N 34°40' E 135°23'1 0.3
2018-Jun-14 03:36N 34°40' E 135°23'1 8.3
2018-Jun-14 03:28N 34°40' E 135°23'1 0.9
2018-Jun-14 02:32N 34°39' E 135°24'0 9.0
2018-Jun-14 02:29N 34°40' E 135°24'3 4.6
2018-Jun-14 01:54N 34°41' E 135°21'2 3.8
2018-Jun-14 01:30N 34°40' E 135°20'2 4.6
2018-Jun-14 00:59N 34°39' E 135°17'0 0.0
2018-Jun-14 00:07N 34°39' E 135°17'0 0.0
2018-Jun-13 23:43N 34°39' E 135°17'0 0.0
2018-Jun-13 23:25N 34°39' E 135°17'1 2.0
2018-Jun-13 23:00N 34°39' E 135°18'3 5.5
2018-Jun-13 22:26N 34°41' E 135°21'0 0.5
2018-Jun-13 21:58N 34°41' E 135°21'5 0.4
2018-Jun-13 08:03N 34°39' E 135°27'0 8.1
2018-Jun-13 08:00N 34°39' E 135°26'5 8.6
2018-Jun-13 07:26N 34°41' E 135°21'1 0.1
2018-Jun-12 22:50N 34°41' E 135°23'1 3.7
2018-Jun-12 22:26N 34°41' E 135°21'0 0.6
2018-Jun-12 21:56N 34°41' E 135°21'4 8.8
2018-Jun-12 21:29N 34°39' E 135°25'  
Track history (hours):
 
Tides and Currents Weather Stations Pressure Air Temp Water Temp Dewpoint Dewpoint Depression Visibility Wind Speed Wind Dir Waves Ship Positions

Chiyomaru No.28

Last reported at 2018-Jun-22 07:42 UTC. Time now 2018-Jun-22 20:23 UTC.
Position N 34°39' E 135°25'.

Length 18 m; draft 5 m.

Type: Tug. MMSI: 431000432.

Date/timePositionNaut miles runAvg speedWind from/ knotsBaromVisibWave heightAir tempDewpointWater temp
2018-Jun-22 07:42N 34°39' E 135°25'2 8.3
2018-Jun-22 07:26N 34°40' E 135°23'1 0.9
2018-Jun-22 05:59N 34°41' E 135°22'0 0.0
2018-Jun-22 05:26N 34°41' E 135°22'0 0.0
2018-Jun-22 04:59N 34°41' E 135°22'0 0.1
2018-Jun-22 01:37N 34°41' E 135°22'0 1.4
2018-Jun-22 01:19N 34°41' E 135°21'2 4.6
2018-Jun-22 00:59N 34°40' E 135°20'2 4.8
2018-Jun-22 00:30N 34°39' E 135°17'0 0.0
2018-Jun-21 23:45N 34°39' E 135°17'0 0.0
2018-Jun-21 23:24N 34°39' E 135°17'0 0.7
2018-Jun-21 23:00N 34°39' E 135°17'3 6.5
2018-Jun-21 22:30N 34°40' E 135°21'1 1.5
2018-Jun-21 21:59N 34°41' E 135°21'4 8.7
2018-Jun-21 21:30N 34°39' E 135°26'1 0.1
2018-Jun-21 08:31N 34°39' E 135°27'0 9.0
2018-Jun-21 08:30N 34°39' E 135°27'4 8.4
2018-Jun-21 08:00N 34°40' E 135°22'1 1.3
2018-Jun-21 07:29N 34°41' E 135°22'1 0.1
2018-Jun-20 22:50N 34°41' E 135°23'1 4.1
2018-Jun-20 22:30N 34°41' E 135°21'0 0.1
2018-Jun-20 22:00N 34°41' E 135°21'4 0.3
2018-Jun-20 07:33N 34°39' E 135°26'1 8.1
2018-Jun-20 07:25N 34°39' E 135°24'2 0.3
2018-Jun-19 22:21N 34°41' E 135°22'3 7.5
2018-Jun-19 21:59N 34°39' E 135°25'2 0.1
2018-Jun-19 02:26N 34°39' E 135°28'4 7.9
2018-Jun-19 01:54N 34°40' E 135°23'2 4.8
2018-Jun-19 01:30N 34°41' E 135°21'1 2.1
2018-Jun-19 01:00N 34°40' E 135°20'3 5.1
2018-Jun-19 00:30N 34°39' E 135°17'0 0.0
2018-Jun-18 23:55N 34°39' E 135°17'0 0.0
2018-Jun-18 23:22N 34°39' E 135°17'1 2.7
2018-Jun-18 23:00N 34°39' E 135°18'3 6.2
2018-Jun-18 22:29N 34°40' E 135°22'1 1.2
2018-Jun-18 21:57N 34°41' E 135°21'4 8.4
2018-Jun-18 21:26N 34°39' E 135°26'1 0.0
2018-Jun-18 02:06N 34°39' E 135°27'1 8.3
2018-Jun-18 01:58N 34°39' E 135°25'4 8.1
2018-Jun-18 01:30N 34°41' E 135°21'0 0.7
2018-Jun-18 00:55N 34°41' E 135°21'0 0.0
2018-Jun-18 00:25N 34°41' E 135°21'0 0.0
2018-Jun-17 23:55N 34°41' E 135°21'0 0.0
2018-Jun-17 23:25N 34°41' E 135°21'0 0.0
2018-Jun-17 22:55N 34°41' E 135°21'0 0.0
2018-Jun-17 22:25N 34°41' E 135°21'0 0.0
2018-Jun-17 22:00N 34°41' E 135°21'  
2018-Jun-15 08:05N 34°39' E 135°27'1 8.6
2018-Jun-15 07:58N 34°39' E 135°26'4 7.3
2018-Jun-15 07:22N 34°41' E 135°21'1 0.2
2018-Jun-14 22:53N 34°41' E 135°23'2 3.5
2018-Jun-14 22:25N 34°41' E 135°21'1 1.3
2018-Jun-14 22:00N 34°41' E 135°21'6 0.6
2018-Jun-14 12:06N 34°39' E 135°28'0 0.0
2018-Jun-14 11:54N 34°39' E 135°28'0 0.0
2018-Jun-14 11:24N 34°39' E 135°28'0 0.0
2018-Jun-14 11:00N 34°39' E 135°28'1 0.3
2018-Jun-14 07:49N 34°39' E 135°27'3 8.3
2018-Jun-14 07:27N 34°40' E 135°23'1 0.3
2018-Jun-14 03:36N 34°40' E 135°23'1 8.3
2018-Jun-14 03:28N 34°40' E 135°23'1 0.9
2018-Jun-14 02:32N 34°39' E 135°24'0 9.0
2018-Jun-14 02:29N 34°40' E 135°24'3 4.6
2018-Jun-14 01:54N 34°41' E 135°21'2 3.8
2018-Jun-14 01:30N 34°40' E 135°20'2 4.6
2018-Jun-14 00:59N 34°39' E 135°17'0 0.0
2018-Jun-14 00:07N 34°39' E 135°17'0 0.0
2018-Jun-13 23:43N 34°39' E 135°17'0 0.0
2018-Jun-13 23:25N 34°39' E 135°17'1 2.0
2018-Jun-13 23:00N 34°39' E 135°18'3 5.5
2018-Jun-13 22:26N 34°41' E 135°21'0 0.5
2018-Jun-13 21:58N 34°41' E 135°21'5 0.4
2018-Jun-13 08:03N 34°39' E 135°27'0 8.1
2018-Jun-13 08:00N 34°39' E 135°26'5 8.6
2018-Jun-13 07:26N 34°41' E 135°21'1 0.1
2018-Jun-12 22:50N 34°41' E 135°23'1 3.7
2018-Jun-12 22:26N 34°41' E 135°21'0 0.6
2018-Jun-12 21:56N 34°41' E 135°21'4 8.8
2018-Jun-12 21:29N 34°39' E 135°25'  

Dump ship's entire track history